Hlavní strana
METAR-TAF:

METAR-TAF

Letiště :

Bejrút, Libanon

zeměpisná šířka: 33-49N, zeměpisná délka: 035-29E, výška: 29 m

Aktuální stav počasí

Zpráva byla vytvořena před 22 minutami, v 05:00 UTC
Jihovýchodní vítr 4 kt
Teplota 16°C
Vlhkost vzduchu 39%
Tlak 1016 hPa
Viditelnost 10 km a více
Žádná oblačnost pod 1500 m, nevyskytují se cumulonimby.

METAR: OLBA 220500Z 14004KT CAVOK 16/02 Q1016 NOSIG

Čas: 07:22 (05:22 UTC)

Předpověď počasí

Zpráva byla vytvořena před 7 hodinami a 22 minutami, v 22:00 UTC
Předpověď platná od 22 v 00 UTC do 23 v 06 UTC
vítr z různých směrů 2 kt
Viditelnost 10 km a více
Žádná oblačnost pod 1500 m, nevyskytují se cumulonimby.
Změna
od 22 v 06 UTC do 22 v 09 UTC
Severoseverozápadní vítr 8 kt
Viditelnost: 8000 m
Změna
od 22 v 20 UTC do 22 v 22 UTC
Východojihovýchodní vítr 4 kt
Viditelnost 10 km a více
Žádná oblačnost pod 1500 m, nevyskytují se cumulonimby.

TAF: OLBA 212200Z 2200/2306 VRB02KT CAVOK BECMG 2206/2209 33008KT 8000 NSC BECMG 2220/2222 12004KT CAVOK

Stav a předpovědi počasí z více než 4 000 letišť (zprávy METAR a TAF).

Červené a žluté tečky na mapě představují dostupné meteorologické stanice.

Když kurzor umístíte na tečku, zobrazí se název stanice.

Pak kliknutím zobrazíte stav a předpověď počasí.

Chcete-li změnit mapu, kliknutím na zelené tlačítko se znaménkem +mapu přiblížíte, kliknutím na zelené tlačítko se znaménkem – mapu oddálíte a kliknutím na zelené šipky přejdete na sousední mapy.


METAR-TAF: